Time;durP1;ratioP1;P1;durP2;ratioP2;P2;SDS_P1;SDS_P2;PMS_P1;PMS_P2;Temp;Humidity;BMP_temperature;BMP_pressure;BME280_temperature;BME280_humidity;BME280_pressure;Samples;Min_cycle;Max_cycle;Signal;HPM_P1;HPM_P2
2021/12/06 00:01:58;;;;;;;3.58;1.10;;;22.60;99.90;;;;;;5080056;28;20204;-93
2021/12/06 00:04:36;;;;;;;7.70;1.35;;;22.80;99.90;;;;;;5060681;28;20227;-92
2021/12/06 00:07:17;;;;;;;7.43;1.60;;;22.90;99.90;;;;;;5076350;28;20230;-91
2021/12/06 00:09:47;;;;;;;9.05;1.48;;;23.10;99.90;;;;;;5079938;28;20212;-93
2021/12/06 00:12:20;;;;;;;6.35;1.10;;;23.20;99.90;;;;;;5074253;28;20196;-92
2021/12/06 00:14:52;;;;;;;4.78;0.95;;;23.30;99.90;;;;;;5073652;28;20214;-92
2021/12/06 00:17:24;;;;;;;9.18;1.25;;;23.30;99.90;;;;;;5064586;28;20200;-93
2021/12/06 00:19:58;;;;;;;5.32;1.20;;;23.40;99.90;;;;;;5074752;28;20188;-93
2021/12/06 00:22:30;;;;;;;7.57;2.50;;;23.60;99.90;;;;;;5069876;28;20260;-92
2021/12/06 00:25:02;;;;;;;6.18;1.27;;;23.80;99.90;;;;;;5064441;28;20243;-93
2021/12/06 00:27:34;;;;;;;5.65;1.10;;;23.90;99.90;;;;;;5070744;28;20192;-93
2021/12/06 00:30:06;;;;;;;4.22;1.08;;;24.10;99.90;;;;;;5075330;28;20208;-95
2021/12/06 00:32:37;;;;;;;9.35;1.63;;;24.00;99.90;;;;;;5066982;28;20231;-93
2021/12/06 00:35:19;;;;;;;5.38;1.15;;;24.00;99.90;;;;;;5072218;28;20192;-93
2021/12/06 00:37:57;;;;;;;9.55;1.77;;;24.00;99.90;;;;;;5073394;28;20603;-93
2021/12/06 00:40:32;;;;;;;6.45;1.80;;;23.80;99.90;;;;;;5074058;28;20649;-92
2021/12/06 00:43:05;;;;;;;8.88;4.05;;;23.90;99.90;;;;;;5074061;28;20230;-92
2021/12/06 00:45:36;;;;;;;5.78;3.00;;;23.80;99.90;;;;;;5072611;28;20212;-93
2021/12/06 00:48:08;;;;;;;6.47;1.73;;;23.80;99.90;;;;;;5084637;28;20207;-93
2021/12/06 00:50:46;;;;;;;5.57;1.05;;;23.80;99.90;;;;;;5070207;28;20211;-93
2021/12/06 00:53:18;;;;;;;7.00;1.13;;;23.60;99.90;;;;;;5063033;28;20210;-93
2021/12/06 00:55:50;;;;;;;9.60;1.50;;;23.50;99.90;;;;;;5068932;28;20227;-91
2021/12/06 00:58:22;;;;;;;3.58;1.27;;;23.40;99.90;;;;;;5064667;28;20210;-92
2021/12/06 01:00:56;;;;;;;5.80;1.23;;;23.30;99.90;;;;;;5070360;28;20192;-93
2021/12/06 01:03:30;;;;;;;5.40;1.42;;;23.30;99.90;;;;;;5073225;28;20196;-92
2021/12/06 01:06:04;;;;;;;6.95;1.10;;;23.30;99.90;;;;;;5071808;28;20232;-92
2021/12/06 01:08:36;;;;;;;9.73;1.45;;;23.40;99.90;;;;;;5088383;28;20222;-92
2021/12/06 01:11:09;;;;;;;4.40;1.00;;;23.50;99.90;;;;;;5055228;28;20196;-91
2021/12/06 01:13:41;;;;;;;8.77;1.20;;;23.50;99.90;;;;;;5073209;28;20204;-92
2021/12/06 01:16:13;;;;;;;7.72;1.63;;;23.60;99.90;;;;;;5075517;28;20214;-94
2021/12/06 01:18:45;;;;;;;6.40;1.00;;;23.70;99.90;;;;;;5070924;28;20192;-93
2021/12/06 01:21:23;;;;;;;6.47;1.20;;;23.70;99.90;;;;;;5065441;28;20207;-93
2021/12/06 01:23:58;;;;;;;5.20;1.42;;;23.80;99.90;;;;;;5076505;28;20192;-92
2021/12/06 01:29:47;;;;;;;6.28;1.10;;;24.00;99.90;;;;;;5066632;28;20200;-91
2021/12/06 01:32:36;;;;;;;4.60;1.17;;;23.90;99.90;;;;;;5071336;28;20682;-91
2021/12/06 01:40:46;;;;;;;5.50;1.40;;;24.00;99.90;;;;;;5072125;28;20325;-90
2021/12/06 01:43:17;;;;;;;6.70;1.60;;;24.20;99.90;;;;;;5065858;28;20220;-92
2021/12/06 01:45:48;;;;;;;7.20;1.27;;;24.30;99.90;;;;;;5060071;28;20266;-89
2021/12/06 01:48:20;;;;;;;3.85;0.90;;;24.30;99.90;;;;;;5057036;28;20196;-89
2021/12/06 01:50:52;;;;;;;7.05;1.10;;;24.10;99.90;;;;;;5073839;28;20195;-90
2021/12/06 01:53:26;;;;;;;5.97;1.20;;;24.10;99.90;;;;;;5071436;28;20208;-91
2021/12/06 01:55:58;;;;;;;5.97;1.20;;;24.10;99.90;;;;;;5067468;28;20203;-89
2021/12/06 01:58:30;;;;;;;7.30;1.40;;;24.20;99.90;;;;;;5073493;28;20184;-88
2021/12/06 02:03:44;;;;;;;7.55;1.48;;;24.00;99.90;;;;;;5063184;28;20219;-88
2021/12/06 02:06:15;;;;;;;5.82;1.48;;;23.90;99.90;;;;;;5075240;28;20642;-89
2021/12/06 02:08:48;;;;;;;7.05;1.23;;;23.80;99.90;;;;;;5070809;28;20204;-88
2021/12/06 02:11:18;;;;;;;10.65;1.33;;;23.70;99.90;;;;;;5069628;28;20192;-88
2021/12/06 02:13:54;;;;;;;3.30;1.00;;;23.50;99.90;;;;;;5069904;28;20224;-88
2021/12/06 02:16:35;;;;;;;8.57;1.20;;;23.40;99.90;;;;;;5074237;28;20199;-88
2021/12/06 02:19:07;;;;;;;4.20;1.20;;;23.30;99.90;;;;;;5067420;28;20254;-87
2021/12/06 02:21:43;;;;;;;6.05;1.17;;;23.20;99.90;;;;;;5068068;28;20224;-87
2021/12/06 02:24:15;;;;;;;5.43;1.05;;;23.20;99.90;;;;;;5072501;28;20188;-88
2021/12/06 02:26:47;;;;;;;4.30;1.15;;;23.30;99.90;;;;;;5067709;28;20223;-89
2021/12/06 02:29:19;;;;;;;10.15;1.30;;;23.30;99.90;;;;;;5062836;28;20212;-88
2021/12/06 02:31:50;;;;;;;5.50;1.17;;;23.20;99.90;;;;;;5056144;28;20212;-88
2021/12/06 02:34:21;;;;;;;5.82;1.20;;;23.30;99.90;;;;;;5072856;28;20188;-88
2021/12/06 02:36:55;;;;;;;5.55;1.10;;;23.30;99.90;;;;;;5071798;28;20196;-88
2021/12/06 02:39:29;;;;;;;5.82;1.05;;;23.30;99.90;;;;;;5076349;28;20548;-88
2021/12/06 02:42:00;;;;;;;5.10;1.15;;;23.10;99.90;;;;;;5057547;28;20215;-87
2021/12/06 02:44:34;;;;;;;4.25;1.20;;;23.20;99.90;;;;;;5076102;28;20192;-89
2021/12/06 02:47:08;;;;;;;4.30;1.10;;;23.30;99.90;;;;;;5075745;28;20235;-88
2021/12/06 02:49:39;;;;;;;4.55;1.10;;;23.20;99.90;;;;;;5069913;28;20210;-92
2021/12/06 02:52:14;;;;;;;5.90;1.25;;;23.10;99.90;;;;;;5074770;28;20250;-92
2021/12/06 02:54:54;;;;;;;4.13;1.10;;;23.10;99.90;;;;;;5079873;28;20200;-91
2021/12/06 02:57:36;;;;;;;6.70;1.05;;;23.10;99.90;;;;;;5075008;28;20207;-93
2021/12/06 03:00:12;;;;;;;5.28;1.13;;;23.20;99.90;;;;;;5074573;28;20598;-94
2021/12/06 03:02:44;;;;;;;4.43;1.23;;;23.30;99.90;;;;;;5075560;28;20200;-94
2021/12/06 03:05:16;;;;;;;7.78;1.27;;;23.30;99.90;;;;;;5076725;28;20581;-94
2021/12/06 03:08:10;;;;;;;3.45;0.90;;;23.30;99.90;;;;;;5083536;28;20200;-92
2021/12/06 03:10:43;;;;;;;5.78;1.20;;;23.20;99.90;;;;;;5064287;28;20221;-92
2021/12/06 03:13:15;;;;;;;4.45;1.05;;;23.30;99.90;;;;;;5061567;28;20301;-93
2021/12/06 03:15:46;;;;;;;2.95;1.00;;;23.20;99.90;;;;;;5074753;28;20207;-94
2021/12/06 03:18:18;;;;;;;4.15;1.30;;;23.10;99.90;;;;;;5078246;28;20203;-94
2021/12/06 03:20:50;;;;;;;6.05;1.08;;;23.10;99.90;;;;;;5062682;28;20205;-92
2021/12/06 03:23:23;;;;;;;5.93;1.40;;;23.20;99.90;;;;;;5057496;28;20189;-92
2021/12/06 03:25:54;;;;;;;5.28;1.10;;;23.20;99.90;;;;;;5073626;28;20220;-92
2021/12/06 03:28:25;;;;;;;3.75;0.90;;;23.10;99.90;;;;;;5055625;28;20189;-93
2021/12/06 03:30:56;;;;;;;5.18;1.10;;;23.10;99.90;;;;;;5067600;28;20230;-91
2021/12/06 03:33:28;;;;;;;3.88;1.00;;;23.00;99.90;;;;;;5065312;28;20234;-92
2021/12/06 03:36:00;;;;;;;4.63;1.10;;;23.00;99.90;;;;;;5070763;28;20219;-92
2021/12/06 03:38:35;;;;;;;4.70;1.10;;;23.00;99.90;;;;;;5074803;28;20242;-93
2021/12/06 03:41:07;;;;;;;5.97;1.02;;;22.90;99.90;;;;;;5049982;28;20196;-92
2021/12/06 03:46:33;;;;;;;6.93;1.20;;;22.80;99.90;;;;;;5072585;28;20224;-93
2021/12/06 03:49:10;;;;;;;4.60;1.05;;;22.70;99.90;;;;;;5067215;28;20345;-94
2021/12/06 03:51:43;;;;;;;6.78;1.00;;;22.70;99.90;;;;;;5063548;28;20902;-93
2021/12/06 03:54:19;;;;;;;3.17;1.00;;;22.70;99.90;;;;;;5073969;28;20218;-94
2021/12/06 03:56:52;;;;;;;3.55;0.90;;;22.70;99.90;;;;;;5067855;28;20204;-92
2021/12/06 03:59:24;;;;;;;4.97;1.10;;;22.70;99.90;;;;;;5076090;28;20231;-92
2021/12/06 04:01:57;;;;;;;3.65;1.05;;;22.70;99.90;;;;;;5083382;28;20279;-93
2021/12/06 04:04:29;;;;;;;3.30;0.93;;;22.70;99.90;;;;;;5083675;28;20239;-93
2021/12/06 04:07:00;;;;;;;5.43;1.10;;;22.70;99.90;;;;;;5073899;28;20234;-92
2021/12/06 04:09:35;;;;;;;6.78;1.30;;;22.50;99.90;;;;;;5073890;28;20204;-92
2021/12/06 04:12:06;;;;;;;6.53;1.38;;;22.50;99.90;;;;;;5072808;28;20242;-93
2021/12/06 04:14:36;;;;;;;5.32;1.08;;;22.40;99.90;;;;;;5073705;28;20200;-92
2021/12/06 04:17:09;;;;;;;5.28;1.23;;;22.40;99.90;;;;;;5072837;28;20232;-92
2021/12/06 04:19:40;;;;;;;3.53;0.90;;;22.30;99.90;;;;;;5072241;28;20302;-92
2021/12/06 04:22:12;;;;;;;7.45;1.38;;;22.30;99.90;;;;;;5070380;28;20576;-91
2021/12/06 04:24:48;;;;;;;8.23;1.17;;;22.30;99.90;;;;;;5053061;28;20674;-93
2021/12/06 04:27:21;;;;;;;5.38;1.00;;;22.40;99.90;;;;;;5070439;28;20245;-91
2021/12/06 04:29:53;;;;;;;3.72;0.90;;;22.40;99.90;;;;;;5072613;28;20320;-92
2021/12/06 04:32:25;;;;;;;7.72;1.48;;;22.50;99.90;;;;;;5072439;28;20223;-92
2021/12/06 04:34:55;;;;;;;3.50;1.10;;;22.50;99.90;;;;;;5072963;28;20261;-93
2021/12/06 04:37:27;;;;;;;4.07;1.00;;;22.60;99.90;;;;;;5073050;28;20587;-92
2021/12/06 04:40:00;;;;;;;5.65;1.08;;;22.70;99.90;;;;;;5073898;28;20200;-93
2021/12/06 04:42:34;;;;;;;2.83;1.00;;;22.70;99.90;;;;;;5074605;28;20580;-92
2021/12/06 04:45:06;;;;;;;6.43;1.17;;;22.80;99.90;;;;;;5074714;28;20208;-92
2021/12/06 04:47:37;;;;;;;3.95;1.08;;;22.80;99.90;;;;;;5073533;28;20219;-91
2021/12/06 04:50:09;;;;;;;3.92;0.93;;;22.80;99.90;;;;;;5054050;28;20228;-92
2021/12/06 04:52:41;;;;;;;5.75;1.30;;;22.80;99.90;;;;;;5054134;28;20211;-92
2021/12/06 04:55:32;;;;;;;7.32;1.10;;;22.80;99.90;;;;;;5070419;28;20220;-91
2021/12/06 04:58:04;;;;;;;4.07;1.00;;;22.90;99.90;;;;;;5076431;28;20239;-90
2021/12/06 05:00:38;;;;;;;4.13;1.10;;;23.00;99.90;;;;;;5075361;28;20196;-90
2021/12/06 05:03:11;;;;;;;3.75;1.00;;;23.00;99.90;;;;;;5076231;28;20576;-88
2021/12/06 05:05:47;;;;;;;3.47;0.98;;;23.10;99.90;;;;;;5072656;28;20788;-90
2021/12/06 05:08:21;;;;;;;5.82;1.30;;;23.10;99.90;;;;;;5074846;28;20220;-91
2021/12/06 05:10:56;;;;;;;5.10;1.15;;;23.30;99.90;;;;;;5070042;28;20209;-90
2021/12/06 05:13:30;;;;;;;4.63;1.13;;;23.30;99.90;;;;;;5078964;28;20199;-90
2021/12/06 05:16:02;;;;;;;5.20;1.13;;;23.20;99.90;;;;;;5077295;28;20629;-90
2021/12/06 05:18:34;;;;;;;8.65;1.58;;;23.20;99.90;;;;;;5076857;28;20202;-91
2021/12/06 05:21:05;;;;;;;3.35;1.20;;;23.10;99.90;;;;;;5075342;28;20220;-90
2021/12/06 05:23:36;;;;;;;4.55;1.10;;;23.20;99.90;;;;;;5055183;28;20836;-90
2021/12/06 05:26:11;;;;;;;9.13;1.30;;;23.20;99.90;;;;;;5064313;28;20241;-90
2021/12/06 05:28:44;;;;;;;4.68;1.13;;;23.20;99.90;;;;;;5051815;28;20297;-91
2021/12/06 05:31:20;;;;;;;4.88;1.20;;;23.20;99.90;;;;;;5071253;28;20199;-90
2021/12/06 05:33:58;;;;;;;4.05;1.00;;;23.20;99.90;;;;;;5071251;28;20607;-90
2021/12/06 05:36:30;;;;;;;9.32;1.38;;;23.20;99.90;;;;;;5070966;28;20203;-92
2021/12/06 05:39:06;;;;;;;5.68;1.30;;;23.10;99.90;;;;;;5071889;28;20222;-92
2021/12/06 05:41:40;;;;;;;4.85;1.33;;;23.10;99.90;;;;;;5057193;28;20211;-92
2021/12/06 05:44:12;;;;;;;4.90;1.23;;;23.00;99.90;;;;;;5071017;28;20703;-90
2021/12/06 05:46:43;;;;;;;5.05;1.13;;;23.00;99.90;;;;;;5075818;28;20224;-90
2021/12/06 05:49:15;;;;;;;5.78;1.05;;;22.90;99.90;;;;;;5071621;28;20204;-90
2021/12/06 05:51:47;;;;;;;5.03;1.20;;;22.80;99.90;;;;;;5075125;28;20192;-90
2021/12/06 05:54:18;;;;;;;5.00;1.30;;;22.90;99.90;;;;;;5074822;28;20188;-90
2021/12/06 05:56:51;;;;;;;4.00;1.10;;;22.80;99.90;;;;;;5075158;28;20230;-91
2021/12/06 05:59:22;;;;;;;4.10;1.20;;;22.80;99.90;;;;;;5057088;28;20193;-91
2021/12/06 06:01:54;;;;;;;3.45;1.08;;;22.70;99.90;;;;;;5061288;28;20220;-91
2021/12/06 06:04:26;;;;;;;3.78;1.40;;;22.70;99.90;;;;;;5065839;28;20243;-89
2021/12/06 06:06:57;;;;;;;4.32;1.00;;;22.70;99.90;;;;;;5073679;28;20294;-91
2021/12/06 06:09:27;;;;;;;2.67;1.00;;;22.60;99.90;;;;;;5075365;28;20224;-91
2021/12/06 06:12:00;;;;;;;4.72;1.20;;;22.50;99.90;;;;;;5075508;28;20203;-89
2021/12/06 06:14:31;;;;;;;2.05;0.80;;;22.60;99.90;;;;;;5075948;28;20257;-90
2021/12/06 06:17:08;;;;;;;6.80;1.38;;;22.50;99.90;;;;;;5081437;28;20234;-90
2021/12/06 06:19:42;;;;;;;5.05;1.20;;;22.60;99.90;;;;;;5057131;28;20699;-89
2021/12/06 06:22:12;;;;;;;4.20;1.20;;;22.60;99.90;;;;;;5067358;28;20203;-90
2021/12/06 06:24:45;;;;;;;4.53;1.30;;;22.50;99.90;;;;;;5075572;28;20192;-91
2021/12/06 06:27:17;;;;;;;4.00;1.10;;;22.40;99.90;;;;;;5064960;28;20251;-90
2021/12/06 06:29:49;;;;;;;8.57;1.35;;;22.40;99.90;;;;;;5069712;28;20224;-91
2021/12/06 06:32:20;;;;;;;4.63;1.00;;;22.40;99.90;;;;;;5071732;28;20224;-91
2021/12/06 06:34:51;;;;;;;6.85;1.40;;;22.40;99.90;;;;;;5073638;28;20934;-91
2021/12/06 06:37:23;;;;;;;5.38;1.10;;;22.50;99.90;;;;;;5081254;28;20219;-90
2021/12/06 06:39:54;;;;;;;5.22;1.10;;;22.40;99.90;;;;;;5068030;28;20228;-90
2021/12/06 06:42:29;;;;;;;5.45;1.10;;;22.30;99.90;;;;;;5074724;28;20670;-90
2021/12/06 06:45:02;;;;;;;6.50;1.05;;;22.30;99.90;;;;;;5065517;28;20212;-90
2021/12/06 06:47:33;;;;;;;6.25;1.58;;;22.40;99.90;;;;;;5063602;28;20232;-91
2021/12/06 06:50:05;;;;;;;5.32;1.20;;;22.40;99.90;;;;;;5068078;28;20229;-94
2021/12/06 06:52:37;;;;;;;5.57;1.58;;;22.40;99.90;;;;;;5075043;28;20223;-93
2021/12/06 06:55:09;;;;;;;5.45;1.25;;;22.40;99.90;;;;;;5075021;28;20196;-93
2021/12/06 06:57:46;;;;;;;7.35;1.48;;;22.50;99.90;;;;;;5076051;28;20282;-93
2021/12/06 07:00:19;;;;;;;6.22;1.60;;;22.50;99.90;;;;;;5075673;28;20203;-93
2021/12/06 07:02:51;;;;;;;5.10;1.42;;;22.50;99.90;;;;;;5076171;28;20241;-94
2021/12/06 07:05:23;;;;;;;7.85;1.17;;;22.50;99.90;;;;;;5066687;28;20228;-92
2021/12/06 07:07:54;;;;;;;4.53;1.15;;;22.40;99.90;;;;;;5068913;28;20556;-93
2021/12/06 07:10:26;;;;;;;8.10;1.65;;;22.40;99.90;;;;;;5070595;28;20200;-92
2021/12/06 07:13:03;;;;;;;3.42;1.00;;;22.30;99.90;;;;;;5074859;28;20552;-91
2021/12/06 07:15:37;;;;;;;6.90;1.27;;;22.30;99.90;;;;;;5068768;28;20215;-90
2021/12/06 07:18:08;;;;;;;9.43;1.40;;;22.30;99.90;;;;;;5073197;28;20195;-89
2021/12/06 07:20:42;;;;;;;11.40;1.42;;;22.30;99.90;;;;;;5073553;28;20200;-90
2021/12/06 07:23:14;;;;;;;5.47;1.17;;;22.30;99.90;;;;;;5074031;28;20202;-92
2021/12/06 07:25:45;;;;;;;6.38;1.45;;;22.40;99.90;;;;;;5074235;28;20200;-92
2021/12/06 07:28:18;;;;;;;8.88;1.33;;;22.40;99.90;;;;;;5074354;28;20223;-94
2021/12/06 07:30:50;;;;;;;5.35;1.10;;;22.50;99.90;;;;;;5056437;28;20200;-91
2021/12/06 07:33:22;;;;;;;4.82;1.02;;;22.50;99.90;;;;;;5073953;28;20565;-90
2021/12/06 07:35:53;;;;;;;4.00;1.20;;;22.60;99.90;;;;;;5082753;28;20279;-90
2021/12/06 07:38:24;;;;;;;4.75;1.13;;;22.60;99.90;;;;;;5079388;28;20233;-91
2021/12/06 07:40:57;;;;;;;5.57;1.40;;;22.50;99.90;;;;;;5071998;28;20224;-89
2021/12/06 07:43:31;;;;;;;3.20;1.10;;;22.40;99.90;;;;;;5064133;28;20212;-91
2021/12/06 07:46:03;;;;;;;5.00;1.17;;;22.30;99.90;;;;;;5056477;28;20589;-91
2021/12/06 07:48:35;;;;;;;6.30;1.35;;;22.30;99.90;;;;;;5072658;28;20220;-90
2021/12/06 07:51:08;;;;;;;5.13;1.23;;;22.30;99.90;;;;;;5061840;28;20215;-91
2021/12/06 07:53:42;;;;;;;7.30;1.30;;;22.20;99.90;;;;;;5066222;28;20224;-93
2021/12/06 07:56:14;;;;;;;5.82;1.20;;;22.20;99.90;;;;;;5067538;28;20223;-93
2021/12/06 07:58:49;;;;;;;5.45;1.40;;;22.20;99.90;;;;;;5073230;28;20192;-92
2021/12/06 08:01:21;;;;;;;5.78;1.48;;;22.10;99.90;;;;;;5058308;28;20188;-93
2021/12/06 08:03:53;;;;;;;6.70;1.50;;;22.10;99.90;;;;;;5056990;28;20191;-94
2021/12/06 08:06:27;;;;;;;6.35;1.25;;;22.10;99.90;;;;;;5073835;28;20191;-92
2021/12/06 08:08:59;;;;;;;5.45;1.20;;;22.10;99.90;;;;;;5067046;28;20223;-92
2021/12/06 08:11:30;;;;;;;4.10;1.08;;;22.00;99.90;;;;;;5074592;28;20576;-93
2021/12/06 08:14:06;;;;;;;6.60;1.50;;;22.00;99.90;;;;;;5057412;28;20207;-92
2021/12/06 08:16:42;;;;;;;4.68;1.20;;;21.90;99.90;;;;;;5068520;28;20285;-91
2021/12/06 08:19:13;;;;;;;5.55;1.25;;;21.90;99.90;;;;;;5070324;28;20569;-89
2021/12/06 08:21:44;;;;;;;5.75;1.15;;;21.80;99.90;;;;;;5059899;28;20685;-86
2021/12/06 08:24:17;;;;;;;6.22;1.10;;;21.70;99.90;;;;;;5071383;28;20257;-86
2021/12/06 08:26:48;;;;;;;6.20;1.33;;;21.70;99.90;;;;;;5071726;28;20212;-87
2021/12/06 08:29:23;;;;;;;3.88;1.20;;;21.60;99.90;;;;;;5071933;28;20228;-86
2021/12/06 08:31:54;;;;;;;5.22;0.93;;;21.60;99.90;;;;;;5072049;28;20188;-90
2021/12/06 08:34:25;;;;;;;5.53;1.13;;;21.50;99.90;;;;;;5066374;28;20224;-89
2021/12/06 08:36:56;;;;;;;4.70;1.48;;;21.50;99.90;;;;;;5077161;28;20196;-92
2021/12/06 08:39:28;;;;;;;5.93;1.50;;;21.50;99.90;;;;;;5072230;28;20192;-89
2021/12/06 08:42:00;;;;;;;5.07;1.40;;;21.50;99.90;;;;;;5069146;28;20228;-90
2021/12/06 08:44:34;;;;;;;4.40;1.02;;;21.50;99.90;;;;;;5062935;28;20195;-89
2021/12/06 08:47:07;;;;;;;6.35;1.30;;;21.40;99.90;;;;;;5054453;28;20192;-90
2021/12/06 08:49:39;;;;;;;2.35;0.90;;;21.40;99.90;;;;;;5056873;28;20203;-90
2021/12/06 08:52:10;;;;;;;6.03;1.45;;;21.40;99.90;;;;;;5068226;28;20219;-91
2021/12/06 08:54:42;;;;;;;4.25;1.00;;;21.40;99.90;;;;;;5060594;28;20589;-91
2021/12/06 08:57:14;;;;;;;7.60;1.00;;;21.40;99.90;;;;;;5071114;28;20250;-90
2021/12/06 08:59:48;;;;;;;3.28;0.93;;;21.40;99.90;;;;;;5068182;28;20616;-89
2021/12/06 09:02:20;;;;;;;5.63;1.35;;;21.30;99.90;;;;;;5061609;28;20195;-90
2021/12/06 09:04:52;;;;;;;3.80;1.10;;;21.30;99.90;;;;;;5069060;28;20219;-90
2021/12/06 09:07:24;;;;;;;5.55;1.30;;;21.30;99.90;;;;;;5075564;28;20269;-91
2021/12/06 09:09:56;;;;;;;3.97;0.90;;;21.30;99.90;;;;;;5066449;28;20676;-90
2021/12/06 09:12:29;;;;;;;5.18;1.33;;;21.30;99.90;;;;;;5060270;28;20228;-90
2021/12/06 09:15:07;;;;;;;5.13;1.10;;;21.20;99.90;;;;;;5064150;28;20227;-90
2021/12/06 09:17:38;;;;;;;3.45;1.17;;;21.30;99.90;;;;;;5065598;28;20667;-92
2021/12/06 09:20:13;;;;;;;6.35;1.38;;;21.30;99.90;;;;;;5059245;28;20215;-91
2021/12/06 09:22:45;;;;;;;5.30;1.50;;;21.30;99.90;;;;;;5060931;28;20251;-90
2021/12/06 09:25:21;;;;;;;6.95;1.45;;;21.30;99.90;;;;;;5065241;28;20219;-90
2021/12/06 09:27:52;;;;;;;3.90;1.30;;;21.30;99.90;;;;;;5067273;28;20301;-90
2021/12/06 09:30:29;;;;;;;7.00;1.30;;;21.30;99.90;;;;;;5069960;28;20573;-90
2021/12/06 09:33:02;;;;;;;4.85;1.05;;;21.30;99.90;;;;;;5066016;28;20231;-89
2021/12/06 09:35:34;;;;;;;6.97;1.45;;;21.30;99.90;;;;;;5062391;28;20193;-90
2021/12/06 09:38:07;;;;;;;3.65;0.95;;;21.30;99.90;;;;;;5060475;28;20197;-90
2021/12/06 09:40:40;;;;;;;4.40;1.30;;;21.20;99.90;;;;;;5058532;28;20196;-91
2021/12/06 09:43:14;;;;;;;3.47;1.20;;;21.20;99.90;;;;;;5058158;28;20264;-91
2021/12/06 09:45:47;;;;;;;4.25;1.10;;;21.20;99.90;;;;;;5061521;28;20197;-91
2021/12/06 09:48:24;;;;;;;6.05;1.20;;;21.20;99.90;;;;;;5063181;28;20232;-90
2021/12/06 09:50:58;;;;;;;6.20;1.50;;;21.20;99.90;;;;;;5068362;28;20198;-90
2021/12/06 09:53:35;;;;;;;3.92;1.25;;;21.20;99.90;;;;;;5063136;28;20200;-90
2021/12/06 09:56:08;;;;;;;3.72;1.10;;;21.10;99.90;;;;;;5065611;28;20673;-89
2021/12/06 09:58:40;;;;;;;6.35;1.42;;;21.10;99.90;;;;;;5070414;28;20613;-88
2021/12/06 10:01:17;;;;;;;4.38;1.23;;;21.10;99.90;;;;;;5056084;28;20513;-90
2021/12/06 10:03:49;;;;;;;4.97;1.20;;;21.10;99.90;;;;;;5062526;28;20199;-89
2021/12/06 10:06:20;;;;;;;3.35;1.15;;;21.10;99.90;;;;;;5069860;28;20215;-87
2021/12/06 10:08:53;;;;;;;3.90;1.38;;;21.10;99.90;;;;;;5091760;28;20276;-90
2021/12/06 10:11:26;;;;;;;4.75;1.38;;;21.00;99.90;;;;;;5071072;28;20685;-91
2021/12/06 10:13:58;;;;;;;5.03;1.27;;;21.00;99.90;;;;;;5066197;28;20625;-88
2021/12/06 10:16:34;;;;;;;3.03;1.23;;;21.00;99.90;;;;;;5060844;28;20322;-88
2021/12/06 10:19:05;;;;;;;3.97;1.17;;;21.00;99.90;;;;;;5069968;28;20188;-88
2021/12/06 10:21:37;;;;;;;4.28;1.35;;;21.00;99.90;;;;;;5055771;28;20220;-89
2021/12/06 10:24:12;;;;;;;6.85;1.35;;;21.00;99.90;;;;;;5071362;28;20193;-90
2021/12/06 10:26:43;;;;;;;4.53;1.10;;;20.90;99.90;;;;;;5072353;28;20280;-88
2021/12/06 10:29:20;;;;;;;3.47;1.13;;;21.00;99.90;;;;;;5056468;28;20529;-88
2021/12/06 10:31:57;;;;;;;7.43;1.30;;;21.00;99.90;;;;;;5058572;28;20757;-87
2021/12/06 10:34:30;;;;;;;5.00;1.20;;;20.90;99.90;;;;;;5069797;28;20207;-88
2021/12/06 10:37:02;;;;;;;4.78;1.40;;;21.00;99.90;;;;;;5048771;28;20196;-90
2021/12/06 10:39:39;;;;;;;2.58;0.90;;;21.00;99.90;;;;;;5078628;28;20206;-90
2021/12/06 10:42:10;;;;;;;8.38;1.25;;;20.90;99.90;;;;;;5074006;28;20196;-89
2021/12/06 10:44:52;;;;;;;4.38;1.13;;;20.90;99.90;;;;;;5073788;28;20207;-89
2021/12/06 10:47:26;;;;;;;5.00;1.33;;;20.90;99.90;;;;;;5061017;28;20192;-91
2021/12/06 10:49:57;;;;;;;3.45;1.05;;;20.90;99.90;;;;;;5072581;28;20301;-92
2021/12/06 10:52:31;;;;;;;8.77;1.35;;;20.90;99.90;;;;;;5073849;28;20204;-90
2021/12/06 10:55:03;;;;;;;4.97;0.95;;;20.90;99.90;;;;;;5056211;28;20196;-89
2021/12/06 10:57:52;;;;;;;4.43;1.05;;;20.90;99.90;;;;;;5071439;28;20635;-90
2021/12/06 11:00:42;;;;;;;4.38;1.50;;;20.90;99.90;;;;;;5062862;28;20197;-90
2021/12/06 11:03:26;;;;;;;3.75;1.45;;;20.90;99.90;;;;;;5066937;28;20180;-90
2021/12/06 11:06:03;;;;;;;4.43;1.25;;;20.90;99.90;;;;;;5073921;28;20254;-91
2021/12/06 11:08:38;;;;;;;5.60;1.25;;;20.90;99.90;;;;;;5058102;28;20228;-89
2021/12/06 11:11:10;;;;;;;4.57;1.10;;;20.90;99.90;;;;;;5074562;28;20678;-90
2021/12/06 11:13:46;;;;;;;5.97;1.30;;;20.90;99.90;;;;;;5071731;28;20192;-90
2021/12/06 11:16:20;;;;;;;5.50;1.20;;;20.90;99.90;;;;;;5073786;28;20196;-89
2021/12/06 11:18:56;;;;;;;3.72;0.90;;;20.90;99.90;;;;;;5068561;28;20203;-87
2021/12/06 11:21:34;;;;;;;4.50;1.30;;;20.90;99.90;;;;;;5072937;28;20200;-88
2021/12/06 11:24:28;;;;;;;4.35;1.00;;;20.90;99.90;;;;;;5070825;28;20187;-89
2021/12/06 11:27:03;;;;;;;4.40;1.30;;;20.90;99.90;;;;;;5063757;28;20219;-88
2021/12/06 11:29:38;;;;;;;4.20;1.20;;;20.90;99.90;;;;;;5072051;28;20219;-89
2021/12/06 11:32:12;;;;;;;2.28;0.90;;;20.90;99.90;;;;;;5072864;28;20243;-89
2021/12/06 11:34:47;;;;;;;5.38;1.35;;;20.90;99.90;;;;;;5072909;28;20257;-89
2021/12/06 11:37:21;;;;;;;6.75;1.60;;;20.90;99.90;;;;;;5072971;28;20200;-88
2021/12/06 11:40:02;;;;;;;4.30;1.30;;;20.90;99.90;;;;;;5062852;28;20191;-90
2021/12/06 11:42:33;;;;;;;5.65;1.38;;;20.80;99.90;;;;;;5063312;28;20191;-89
2021/12/06 11:45:04;;;;;;;5.50;1.50;;;20.80;99.90;;;;;;5062369;28;20219;-88
2021/12/06 11:47:35;;;;;;;6.25;1.30;;;20.90;99.90;;;;;;5072122;28;20196;-90
2021/12/06 11:50:08;;;;;;;6.47;1.35;;;20.80;99.90;;;;;;5067788;28;20213;-88
2021/12/06 11:52:40;;;;;;;6.03;1.38;;;20.80;99.90;;;;;;5054795;28;20185;-88
2021/12/06 11:55:13;;;;;;;4.78;1.30;;;20.80;99.90;;;;;;5070808;28;20220;-89
2021/12/06 11:57:53;;;;;;;5.05;1.25;;;20.80;99.90;;;;;;5066487;28;20206;-88
2021/12/06 12:00:27;;;;;;;6.15;1.40;;;20.80;99.90;;;;;;5071477;28;20274;-88
2021/12/06 12:02:59;;;;;;;6.78;1.50;;;20.80;99.90;;;;;;5072081;28;20200;-89
2021/12/06 12:05:37;;;;;;;4.22;1.20;;;20.80;99.90;;;;;;5072707;28;20655;-90
2021/12/06 12:08:14;;;;;;;9.05;1.60;;;20.70;99.90;;;;;;5067738;28;20325;-89
2021/12/06 12:10:55;;;;;;;5.95;1.30;;;20.80;99.90;;;;;;5068789;28;20204;-88
2021/12/06 12:13:30;;;;;;;4.38;1.23;;;20.70;99.90;;;;;;5071183;28;20686;-88
2021/12/06 12:16:02;;;;;;;5.00;1.42;;;20.70;99.90;;;;;;5071868;28;20321;-88
2021/12/06 12:18:36;;;;;;;6.22;1.25;;;20.70;99.90;;;;;;5066235;28;20200;-89
2021/12/06 12:21:10;;;;;;;4.13;0.90;;;20.70;99.90;;;;;;5068238;28;20184;-89
2021/12/06 12:23:42;;;;;;;5.28;1.23;;;20.70;99.90;;;;;;5052172;28;20204;-88
2021/12/06 12:26:17;;;;;;;5.00;1.10;;;20.70;99.90;;;;;;5070113;28;20286;-89
2021/12/06 12:29:00;;;;;;;8.05;1.40;;;20.70;99.90;;;;;;5057764;28;20237;-89
2021/12/06 12:31:32;;;;;;;7.78;1.70;;;20.70;99.90;;;;;;5059470;28;20218;-89
2021/12/06 12:34:03;;;;;;;7.18;1.30;;;20.70;99.90;;;;;;5076485;28;20234;-88
2021/12/06 12:36:38;;;;;;;3.60;1.17;;;20.70;99.90;;;;;;5071312;28;20200;-88
2021/12/06 12:39:19;;;;;;;4.10;1.00;;;20.70;99.90;;;;;;5071443;28;20635;-88
2021/12/06 12:41:54;;;;;;;7.15;1.60;;;20.60;99.90;;;;;;5051935;28;20200;-89
2021/12/06 12:44:26;;;;;;;3.80;1.10;;;20.70;99.90;;;;;;5060301;28;20226;-89
2021/12/06 12:46:58;;;;;;;6.88;1.48;;;20.70;99.90;;;;;;5065509;28;20204;-88
2021/12/06 12:49:30;;;;;;;5.00;1.23;;;20.70;99.90;;;;;;5071387;28;20232;-88
2021/12/06 12:52:04;;;;;;;4.50;1.33;;;20.70;99.90;;;;;;5071742;28;20192;-88
2021/12/06 12:54:37;;;;;;;4.45;1.30;;;20.70;99.90;;;;;;5071504;28;20215;-89
2021/12/06 12:57:13;;;;;;;2.95;1.10;;;20.70;99.90;;;;;;5056244;28;20656;-87
2021/12/06 12:59:50;;;;;;;7.55;1.50;;;20.60;99.90;;;;;;5057870;28;20219;-91
2021/12/06 13:02:27;;;;;;;4.80;1.25;;;20.60;99.90;;;;;;5057941;28;20223;-90
2021/12/06 13:05:33;;;;;;;3.45;1.10;;;20.60;99.90;;;;;;5070697;28;20195;-89
2021/12/06 13:08:14;;;;;;;5.55;1.30;;;20.70;99.90;;;;;;5025271;28;20211;-90
2021/12/06 13:10:57;;;;;;;6.30;1.30;;;20.60;99.90;;;;;;5074416;28;20764;-89
2021/12/06 13:13:39;;;;;;;5.50;1.35;;;20.60;99.90;;;;;;5071034;28;20228;-89
2021/12/06 13:16:40;;;;;;;4.78;1.27;;;20.60;99.90;;;;;;5070055;28;20195;-90
2021/12/06 13:19:18;;;;;;;4.95;1.08;;;20.60;99.90;;;;;;5052911;28;20222;-90
2021/12/06 13:22:12;;;;;;;4.95;1.33;;;20.60;99.90;;;;;;5069115;28;20215;-90
2021/12/06 13:24:59;;;;;;;5.35;1.30;;;20.60;99.90;;;;;;5071388;28;20284;-91
2021/12/06 13:27:40;;;;;;;5.32;1.23;;;20.60;99.90;;;;;;5066261;28;20245;-90
2021/12/06 13:30:21;;;;;;;3.83;1.00;;;20.60;99.90;;;;;;5071355;28;20232;-92
2021/12/06 13:32:55;;;;;;;4.10;1.23;;;20.60;99.90;;;;;;5066192;28;20258;-90
2021/12/06 13:35:33;;;;;;;5.32;1.30;;;20.60;99.90;;;;;;5070297;28;20201;-90